Flight Track Log - Related Links

Times and Time Zones

All times are in EST time to prevent confusion due to time zone crossing. See the FIV576 flight status page for this flight to view local times or setup timezone preferences in your user account.

Time Position Orientation Groundspeed Altitude Reporting Facility
EST Latitude Longitude Course Direction KTS MPH feet Rate Location/Type
Sun 03:13:27 PM 33.8475 -116.5239 323° Northwest 175 201 35,000  Level Los Angeles Center
Sun 03:14:29 PM 33.8878 -116.5603 323° Northwest 179 206 35,000 -13,597 Level Los Angeles Center
Sun 03:15:31 PM 33.9294 -116.5336 28° Northeast 217 250 6,900 -12,242 Descending Los Angeles Center
Sun 03:16:33 PM 33.9514 -116.4469 73° East 274 315 9,700 2,371 Climbing Los Angeles Center
Sun 03:17:35 PM 33.9714 -116.3558 75° East 284 327 11,800 2,160 Climbing Los Angeles Center
Sun 03:18:38 PM 34.0014 -116.2294 74° East 322 371 14,200 2,112 Climbing Los Angeles Center
Sun 03:19:40 PM 34.0281 -116.1178 74° East 340 391 16,200 1,887 Climbing Los Angeles Center
Sun 03:20:42 PM 34.0564 -116.0011 74° East 354 407 18,100 1,887 Climbing Los Angeles Center
Sun 03:21:44 PM 34.0847 -115.8836 74° East 361 415 20,100 1,839 Climbing Los Angeles Center
Sun 03:22:46 PM 34.1144 -115.7600 74° East 375 432 21,900 1,597 Climbing Los Angeles Center
Sun 03:23:48 PM 34.1711 -115.6444 59° Northeast 400 460 23,400 1,645 Climbing Los Angeles Center
Sun 03:24:50 PM 34.2381 -115.5028 60° Northeast 404 465 25,300 1,645 Climbing Los Angeles Center
Sun 03:25:52 PM 34.2947 -115.3831 60° Northeast 409 471 26,800 1,452 Climbing Los Angeles Center
Sun 03:26:54 PM 34.3514 -115.2617 60° Northeast 413 475 28,300 1,056 Climbing Los Angeles Center
Sun 03:27:57 PM 34.4094 -115.1378 60° Northeast 419 482 29,000 336 Climbing Los Angeles Center
Sun 03:28:59 PM 34.4708 -115.0083 60° Northeast 435 501 29,000  Level Los Angeles Center
Sun 03:30:01 PM 34.5433 -114.8525 61° Northeast 442 509 29,000  Level Los Angeles Center
Sun 03:31:03 PM 34.6042 -114.7219 60° Northeast 444 511 29,000  Level Los Angeles Center
Sun 03:32:05 PM 34.6589 -114.6039 61° Northeast 446 513 29,000 145 Level Los Angeles Center
Sun 03:33:07 PM 34.7369 -114.4481 59° Northeast 450 518 29,300 871 Climbing Los Angeles Center
Sun 03:34:09 PM 34.8217 -114.3417 46° Northeast 439 505 30,800 1,403 Climbing Los Angeles Center
Sun 03:35:11 PM 34.9058 -114.2372 45° Northeast 432 497 32,200 1,403 Climbing Los Angeles Center
Sun 03:36:13 PM 34.9897 -114.1331 45° Northeast 431 496 33,700 1,355 Climbing Los Angeles Center
Sun 03:37:15 PM 35.0728 -114.0294 46° Northeast 429 494 35,000 816 Climbing Los Angeles Center
Sun 03:38:18 PM 35.1650 -113.9025 48° Northeast 437 503 35,400 768 Climbing Los Angeles Center
Sun 03:39:20 PM 35.2314 -113.7781 57° Northeast 439 505 36,600 774 Climbing Los Angeles Center
Sun 03:40:22 PM 35.3008 -113.6572 55° Northeast 437 503 37,000 194 Climbing Los Angeles Center
Sun 03:41:24 PM 35.3694 -113.5372 55° Northeast 432 497 37,000  Level Los Angeles Center
Sun 03:42:26 PM 35.4378 -113.4164 55° Northeast 431 496 37,000  Level Los Angeles Center
Sun 03:43:28 PM 35.5078 -113.2936 55° Northeast 436 502 37,000 194 Level Los Angeles Center
Sun 03:44:30 PM 35.5917 -113.1417 56° Northeast 432 497 37,400 629 Climbing Los Angeles Center
Sun 03:45:32 PM 35.6597 -113.0203 55° Northeast 431 496 38,300 774 Climbing Los Angeles Center
Sun 03:46:34 PM 35.7258 -112.9017 56° Northeast 432 497 39,000 339 Climbing Los Angeles Center
Sun 03:47:36 PM 35.7939 -112.7794 56° Northeast 432 497 39,000  Level Los Angeles Center
Sun 03:48:39 PM 35.8614 -112.6578 56° Northeast 431 496 39,000  Level Los Angeles Center
Sun 03:49:41 PM 35.9286 -112.5358 56° Northeast 431 496 39,000  Level Los Angeles Center
Sun 03:50:43 PM 36.0058 -112.3933 56° Northeast 423 487 39,000  Level Los Angeles Center
Sun 03:51:45 PM 36.0728 -112.2728 55° Northeast 423 487 39,000  Level Los Angeles Center
Sun 03:52:47 PM 36.1406 -112.1481 56° Northeast 430 495 39,000  Level Los Angeles Center
Sun 03:53:49 PM 36.2053 -112.0278 56° Northeast 427 491 39,000  Level Los Angeles Center
Sun 03:54:51 PM 36.2708 -111.9056 56° Northeast 427 491 39,000  Level Los Angeles Center
Sun 03:55:53 PM 36.3514 -111.7592 56° Northeast 429 494 39,000  Level Los Angeles Center
Sun 03:56:55 PM 36.4156 -111.6383 57° Northeast 424 488 39,000  Level Los Angeles Center
Sun 03:57:58 PM 36.4794 -111.5186 56° Northeast 421 484 39,000  Level Los Angeles Center
Sun 03:59:00 PM 36.5442 -111.3969 56° Northeast 422 486 39,000  Level Los Angeles Center
Sun 04:00:27 PM 36.6475 -111.2033 56° Northeast 423 487 39,000  Level Denver Center
Sun 04:01:29 PM 36.7192 -111.0897 52° Northeast 418 481 39,000  Level Denver Center
Sun 04:02:31 PM 36.7942 -110.9789 50° Northeast 419 482 39,000  Level Denver Center
Sun 04:03:33 PM 36.8703 -110.8647 50° Northeast 425 489 39,000  Level Denver Center
Sun 04:04:35 PM 36.9467 -110.7494 50° Northeast 431 496 39,000  Level Denver Center
Sun 04:05:36 PM 37.0222 -110.6333 51° Northeast 431 496 39,000 -341 Level Denver Center
Sun 04:06:38 PM 37.0981 -110.5189 50° Northeast 429 494 38,300 -919 Descending Denver Center
Sun 04:07:40 PM 37.1881 -110.3808 51° Northeast 428 493 37,100 -629 Descending Denver Center
Sun 04:08:42 PM 37.2631 -110.2669 50° Northeast 424 488 37,000 -48 Descending Denver Center
Sun 04:09:44 PM 37.3350 -110.1547 51° Northeast 428 493 37,000  Level Denver Center
Sun 04:10:46 PM 37.4214 -110.0217 51° Northeast 435 501 37,000  Level Denver Center
Sun 04:11:48 PM 37.4947 -109.9067 51° Northeast 439 505 37,000 -629 Level Denver Center
Sun 04:12:50 PM 37.5803 -109.7750 51° Northeast 435 501 35,700 -968 Descending Denver Center
Sun 04:13:52 PM 37.6525 -109.6622 51° Northeast 432 497 35,000 -339 Descending Denver Center
Sun 04:14:54 PM 37.7386 -109.5261 51° Northeast 442 509 35,000  Level Denver Center
Sun 04:15:56 PM 37.8128 -109.4092 51° Northeast 443 510 35,000  Level Denver Center
Sun 04:16:57 PM 37.8867 -109.2922 51° Northeast 444 511 35,000  Level Denver Center
Sun 04:17:59 PM 37.9725 -109.1567 51° Northeast 440 506 35,000  Level Denver Center
Sun 04:19:01 PM 38.0456 -109.0378 52° Northeast 443 510 35,000 -97 Level Denver Center
Sun 04:20:03 PM 38.1228 -108.9131 52° Northeast 445 512 34,800 -919 Descending Denver Center
Sun 04:21:05 PM 38.2092 -108.7744 52° Northeast 448 516 33,100 -1,500 Descending Denver Center
Sun 04:22:07 PM 38.2839 -108.6556 51° Northeast 449 517 31,700 -1,355 Descending Denver Center
Sun 04:23:09 PM 38.3719 -108.5136 52° Northeast 457 526 30,300 -1,161 Descending Denver Center
Sun 04:24:11 PM 38.4461 -108.3925 52° Northeast 453 521 29,300 -1,065 Descending Denver Center
Sun 04:25:13 PM 38.5325 -108.2517 52° Northeast 452 520 28,100 -1,113 Descending Denver Center
Sun 04:26:15 PM 38.6075 -108.1294 52° Northeast 456 525 27,000 -1,113 Descending Denver Center
Sun 04:27:17 PM 38.6947 -107.9853 52° Northeast 459 528 25,800 -1,113 Descending Denver Center
Sun 04:28:19 PM 38.7697 -107.8625 52° Northeast 458 527 24,700 -1,113 Descending Denver Center
Sun 04:29:21 PM 38.8553 -107.7211 52° Northeast 453 521 23,500 -1,065 Descending Denver Center
Sun 04:30:23 PM 38.9256 -107.6019 53° Northeast 445 512 22,500 -1,016 Descending Denver Center
Sun 04:31:25 PM 39.0064 -107.4686 52° Northeast 431 496 21,400 -1,024 Descending Denver Center
Sun 04:32:26 PM 39.0744 -107.3539 53° Northeast 425 489 20,400 -780 Descending Denver Center
Sun 04:33:28 PM 39.1611 -107.2333 47° Northeast 404 465 19,800 -871 Descending Denver Center
Sun 04:34:30 PM 39.2375 -107.1903 24° Northeast 329 379 18,600 -1,161 Descending Denver Center
Sun 04:35:32 PM 39.3250 -107.1594 15° North 321 369 17,400 -1,355 Descending Denver Center
Sun 04:36:34 PM 39.3678 -107.0714 58° Northeast 305 351 15,800 -1,258 Descending Denver Center
Sun 04:37:36 PM 39.3922 -106.9753 72° East 291 335 14,800 -1,500 Descending Denver Center
Sun 04:38:38 PM 39.3439 -106.9186 138° Southeast 213 245 12,700 -2,468 Descending Denver Center
Sun 04:39:40 PM 39.2939 -106.8961 161° South 195 224 9,700 -1,887 Descending Denver Center
Sun 04:40:42 PM 39.2469 -106.8839 169° South 190 219 8,800 -871 Descending Denver Center

Login

Don't have an account? Register now (free) for customized features, flight alerts, and more!